• Join FlightAware (Why Join?)
  • Login
  • US Flag 
04:28AM EDT


 

Airport Tracker/Info


-or-


 

Live Flight TrackerFlight Track Log ✈ EJA583 ✈ 12-Sep-2013 ✈ KSAN - KLAS

Flight Track Log - Related Links

Times and Time Zones

All times are in EDT time to prevent confusion due to time zone crossing. See the EJA583 flight status page for this flight to view local times or setup timezone preferences in your user account.

Time Position Orientation Groundspeed Altitude Reporting Facility
EDT Latitude Longitude Course Direction KTS MPH feet Rate Location/Type
11:52AM 32.7500 -117.2333 312° West 223 257 3,000  Level Southern California TRACON
11:53AM 32.8000 -117.3000 312° West 259 298 6,600 2,820 Climbing Southern California TRACON
11:54AM 32.8433 -117.3742 305° West 267 307 9,100 2,040 Climbing Los Angeles Center
11:55AM 32.8886 -117.4353 311° West 298 343 11,100 2,400 Climbing Los Angeles Center
11:56AM 32.9589 -117.5311 311° West 315 362 14,100 3,000 Climbing Los Angeles Center
11:57AM 33.0292 -117.6244 312° West 316 364 17,400 2,820 Climbing Los Angeles Center
11:58AM 33.0964 -117.6914 320° Northwest 314 361 20,000 2,100 Climbing Los Angeles Center
11:59AM 33.1633 -117.7633 318° Northwest 320 368 21,800 1,620 Climbing Los Angeles Center
12:00PM 33.2350 -117.8392 318° Northwest 336 387 23,400 1,500 Climbing Los Angeles Center
12:01PM 33.3083 -117.9161 319° Northwest 348 400 25,000 1,200 Climbing Los Angeles Center
12:02PM 33.4053 -118.0058 322° Northwest 369 425 26,000 960 Climbing Los Angeles Center
12:03PM 33.5097 -117.9950 North 384 442 27,100 1,080 Climbing Los Angeles Center
12:04PM 33.6122 -117.9578 17° North 387 445 28,300 900 Climbing Los Angeles Center
12:05PM 33.6939 -117.9292 16° North 386 444 29,000 300 Climbing Los Angeles Center
12:06PM 33.8231 -117.8811 17° North 406 467 29,000  Level Los Angeles Center
12:07PM 33.9350 -117.8406 17° North 420 483 29,000  Level Los Angeles Center
12:08PM 34.0669 -117.7897 18° North 417 480 29,000  Level Los Angeles Center
12:09PM 34.1511 -117.6908 44° Northeast 420 483 29,000  Level Los Angeles Center
12:11PM 34.2297 -117.5833 48° Northeast 425 489 29,000  Level Los Angeles Center
12:12PM 34.3089 -117.4767 48° Northeast 427 491 29,000  Level Los Angeles Center
12:13PM 34.3900 -117.3653 49° Northeast 424 488 29,000  Level Los Angeles Center
12:14PM 34.4833 -117.2375 48° Northeast 425 489 29,000  Level Los Angeles Center
12:15PM 34.5611 -117.1306 49° Northeast 425 489 29,000  Level Los Angeles Center
12:16PM 34.6383 -117.0236 49° Northeast 425 489 29,000  Level Los Angeles Center
12:17PM 34.7167 -116.9167 48° Northeast 426 490 29,000  Level Los Angeles Center
12:18PM 34.7942 -116.8092 49° Northeast 426 490 29,000  Level Los Angeles Center
12:19PM 34.8883 -116.6794 48° Northeast 427 491 29,000 -660 Level Los Angeles Center
12:20PM 34.9653 -116.5714 49° Northeast 426 490 27,700 -1,740 Descending Los Angeles Center
12:21PM 35.0486 -116.4678 45° Northeast 427 491 25,500 -1,800 Descending Los Angeles Center
12:22PM 35.1306 -116.3650 46° Northeast 425 489 24,000 -1,740 Descending Los Angeles Center
12:23PM 35.2108 -116.2647 46° Northeast 419 482 22,000 -1,980 Descending Los Angeles Center
12:24PM 35.3033 -116.1483 46° Northeast 404 465 20,000 -1,680 Descending Los Angeles Center
12:25PM 35.3797 -116.0522 46° Northeast 396 456 18,600 -1,440 Descending Los Angeles Center
12:26PM 35.4536 -115.9561 47° Northeast 392 451 17,100 -1,500 Descending Los Angeles Center
12:27PM 35.5314 -115.8664 43° Northeast 391 450 15,700 -1,500 Descending Los Angeles Center
12:27PM 35.5342 -115.8550 73° East 389 448 15,600 -1,320 Descending Los Angeles Center
12:28PM 35.5989 -115.7789 44° Northeast 358 412 14,400 -1,260 Descending Los Angeles Center
12:28PM 35.6044 -115.7672 60° Northeast 364 419 14,300 -1,200 Descending Los Angeles Center
12:29PM 35.6614 -115.6981 45° Northeast 326 375 13,200 -1,200 Descending Los Angeles Center
12:29PM 35.6664 -115.6889 56° Northeast 327 376 13,100 -180 Descending Los Angeles Center
12:30PM 35.7325 -115.6064 45° Northeast 322 371 13,000 -120 Descending Los Angeles Center
12:30PM 35.7381 -115.5992 47° Northeast 323 372 13,000  Level Los Angeles Center
12:31PM 35.8136 -115.5725 16° North 308 354 13,000  Level Los Angeles Center
12:31PM 35.8217 -115.5719 North 314 361 13,000  Level Los Angeles Center
12:32PM 35.9011 -115.5681 North 309 356 13,000  Level Los Angeles Center
12:32PM 35.9133 -115.5658 North 309 356 13,000  Level Los Angeles Center
12:33PM 35.9736 -115.5339 23° Northeast 317 365 13,000 -240 Level Los Angeles Center
12:33PM 35.9831 -115.5147 59° Northeast 316 364 12,800 -1,200 Descending Los Angeles Center
12:34PM 36.0086 -115.4456 65° Northeast 323 372 11,900 -1,200 Descending Los Angeles Center
12:34PM 36.0172 -115.4181 69° East 313 360 11,600 -1,380 Descending Los Angeles Center
12:35PM 36.0281 -115.3356 81° East 293 337 10,400 -1,260 Descending Los Angeles Center
12:35PM 36.0261 -115.3197 99° East 307 353 10,300 -1,020 Descending Los Angeles Center
12:36PM 36.0197 -115.2372 95° East 282 325 9,400 -1,200 Descending Los Angeles Center
12:36PM 36.0183 -115.2050 93° East 283 326 9,100 -840 Descending Los Angeles Center
12:37PM 36.0156 -115.1483 93° East 248 285 8,600 -720 Descending Los Angeles Center
12:37PM 36.0128 -115.1203 97° East 254 292 8,400 -600 Descending Los Angeles Center
12:38PM 36.0097 -115.0811 95° East 208 239 8,100 -900 Descending Los Angeles Center
12:39PM 36.0258 -115.0464 60° Northeast 211 243 7,300 -1,500 Descending Los Angeles Center
12:39PM 36.0464 -115.0317 30° Northeast 208 239 6,600 -1,020 Descending Los Angeles Center
12:40PM 36.0986 -115.0036 23° Northeast 203 234 6,000 -720 Descending Los Angeles Center
12:41PM 36.1286 -114.9981 North 209 241 5,400 -1,200 Descending Los Angeles Center
12:41PM 36.1394 -115.0328 291° West 192 221 4,700 -1,500 Descending Los Angeles Center
12:42PM 36.1394 -115.0914 270° West 183 211 3,500 -1,140 Descending Los Angeles Center
12:43PM 36.1325 -115.1272 257° West 173 199 2,800 -900 Descending Los Angeles Center
12:43PM 36.1258 -115.1386 234° Southwest 143 165 2,600 -540 Descending Los Angeles Center
12:44PM 36.0978 -115.1539 204° Southwest 152 175 2,300 -420 Descending Los Angeles Center
12:46PM 36.0801 -115.1523 270° West  Level Estimated